sensor_id;sensor_type;location;lat;lon;timestamp;temperature;humidity
11569;DHT22;5840;46.894;15.542;2023-08-08T00:00:18;12.70;99.90
11569;DHT22;5840;46.894;15.542;2023-08-08T00:02:46;12.70;99.90
11569;DHT22;5840;46.894;15.542;2023-08-08T00:05:13;12.60;99.90
11569;DHT22;5840;46.894;15.542;2023-08-08T00:07:40;12.60;99.90
11569;DHT22;5840;46.894;15.542;2023-08-08T00:10:07;12.50;99.90
11569;DHT22;5840;46.894;15.542;2023-08-08T00:12:34;12.50;99.90
11569;DHT22;5840;46.894;15.542;2023-08-08T00:15:01;12.50;99.90
11569;DHT22;5840;46.894;15.542;2023-08-08T00:17:28;12.40;99.90
11569;DHT22;5840;46.894;15.542;2023-08-08T00:19:57;12.50;99.90
11569;DHT22;5840;46.894;15.542;2023-08-08T00:22:24;12.40;99.90
11569;DHT22;5840;46.894;15.542;2023-08-08T00:24:50;12.40;99.90
11569;DHT22;5840;46.894;15.542;2023-08-08T00:27:17;12.40;99.90
11569;DHT22;5840;46.894;15.542;2023-08-08T00:29:44;12.30;99.90
11569;DHT22;5840;46.894;15.542;2023-08-08T00:32:12;12.30;99.90
11569;DHT22;5840;46.894;15.542;2023-08-08T00:34:39;12.40;99.90
11569;DHT22;5840;46.894;15.542;2023-08-08T00:37:07;12.40;99.90
11569;DHT22;5840;46.894;15.542;2023-08-08T00:39:34;12.40;99.90
11569;DHT22;5840;46.894;15.542;2023-08-08T00:42:01;12.50;99.90
11569;DHT22;5840;46.894;15.542;2023-08-08T00:44:28;12.50;99.90
11569;DHT22;5840;46.894;15.542;2023-08-08T00:46:55;12.50;99.90
11569;DHT22;5840;46.894;15.542;2023-08-08T00:49:22;12.50;99.90
11569;DHT22;5840;46.894;15.542;2023-08-08T00:51:50;12.50;99.90
11569;DHT22;5840;46.894;15.542;2023-08-08T00:54:18;12.60;99.90
11569;DHT22;5840;46.894;15.542;2023-08-08T00:56:47;12.60;99.90
11569;DHT22;5840;46.894;15.542;2023-08-08T00:59:14;12.60;99.90
11569;DHT22;5840;46.894;15.542;2023-08-08T01:01:42;12.60;99.90
11569;DHT22;5840;46.894;15.542;2023-08-08T01:04:09;12.50;99.90
11569;DHT22;5840;46.894;15.542;2023-08-08T01:06:39;12.40;99.90
11569;DHT22;5840;46.894;15.542;2023-08-08T01:09:11;12.40;99.90
11569;DHT22;5840;46.894;15.542;2023-08-08T01:11:41;12.40;99.90
11569;DHT22;5840;46.894;15.542;2023-08-08T01:14:09;12.30;99.90
11569;DHT22;5840;46.894;15.542;2023-08-08T01:16:37;12.30;99.90
11569;DHT22;5840;46.894;15.542;2023-08-08T01:19:06;12.30;99.90
11569;DHT22;5840;46.894;15.542;2023-08-08T01:21:36;12.20;99.90
11569;DHT22;5840;46.894;15.542;2023-08-08T01:24:17;12.10;99.90
11569;DHT22;5840;46.894;15.542;2023-08-08T01:26:45;12.10;99.90
11569;DHT22;5840;46.894;15.542;2023-08-08T01:29:12;12.10;99.90
11569;DHT22;5840;46.894;15.542;2023-08-08T01:31:39;12.00;99.90
11569;DHT22;5840;46.894;15.542;2023-08-08T01:34:06;12.00;99.90
11569;DHT22;5840;46.894;15.542;2023-08-08T01:36:38;11.90;99.90
11569;DHT22;5840;46.894;15.542;2023-08-08T01:39:11;11.90;99.90
11569;DHT22;5840;46.894;15.542;2023-08-08T01:41:42;11.90;99.90
11569;DHT22;5840;46.894;15.542;2023-08-08T01:44:10;11.90;99.90
11569;DHT22;5840;46.894;15.542;2023-08-08T01:46:37;11.80;99.90
11569;DHT22;5840;46.894;15.542;2023-08-08T01:49:05;11.80;99.90
11569;DHT22;5840;46.894;15.542;2023-08-08T01:51:31;11.80;99.90
11569;DHT22;5840;46.894;15.542;2023-08-08T01:53:58;11.80;99.90
11569;DHT22;5840;46.894;15.542;2023-08-08T01:56:25;11.80;99.90
11569;DHT22;5840;46.894;15.542;2023-08-08T01:58:53;11.70;99.90
11569;DHT22;5840;46.894;15.542;2023-08-08T02:01:20;11.70;99.90
11569;DHT22;5840;46.894;15.542;2023-08-08T02:03:47;11.70;99.90
11569;DHT22;5840;46.894;15.542;2023-08-08T02:06:14;11.70;99.90
11569;DHT22;5840;46.894;15.542;2023-08-08T02:08:41;11.60;99.90
11569;DHT22;5840;46.894;15.542;2023-08-08T02:11:08;11.60;99.90
11569;DHT22;5840;46.894;15.542;2023-08-08T02:13:35;11.60;99.90
11569;DHT22;5840;46.894;15.542;2023-08-08T02:16:03;11.60;99.90
11569;DHT22;5840;46.894;15.542;2023-08-08T02:18:30;11.50;99.90
11569;DHT22;5840;46.894;15.542;2023-08-08T02:20:57;11.50;99.90
11569;DHT22;5840;46.894;15.542;2023-08-08T02:23:24;11.50;99.90
11569;DHT22;5840;46.894;15.542;2023-08-08T02:25:52;11.40;99.90
11569;DHT22;5840;46.894;15.542;2023-08-08T02:28:19;11.40;99.90
11569;DHT22;5840;46.894;15.542;2023-08-08T02:30:46;11.30;99.90
11569;DHT22;5840;46.894;15.542;2023-08-08T02:33:14;11.30;99.90
11569;DHT22;5840;46.894;15.542;2023-08-08T02:35:41;11.20;99.90
11569;DHT22;5840;46.894;15.542;2023-08-08T02:38:08;11.20;99.90
11569;DHT22;5840;46.894;15.542;2023-08-08T02:40:34;11.20;99.90
11569;DHT22;5840;46.894;15.542;2023-08-08T02:43:01;11.10;99.90
11569;DHT22;5840;46.894;15.542;2023-08-08T02:45:28;11.10;99.90
11569;DHT22;5840;46.894;15.542;2023-08-08T02:47:55;11.10;99.90
11569;DHT22;5840;46.894;15.542;2023-08-08T02:50:23;11.10;99.90
11569;DHT22;5840;46.894;15.542;2023-08-08T02:52:50;11.10;99.90
11569;DHT22;5840;46.894;15.542;2023-08-08T02:55:17;11.00;99.90
11569;DHT22;5840;46.894;15.542;2023-08-08T03:00:12;11.00;99.90
11569;DHT22;5840;46.894;15.542;2023-08-08T03:02:39;10.90;99.90
11569;DHT22;5840;46.894;15.542;2023-08-08T03:05:07;10.90;99.90
11569;DHT22;5840;46.894;15.542;2023-08-08T03:07:35;10.80;99.90
11569;DHT22;5840;46.894;15.542;2023-08-08T03:10:03;10.80;99.90
11569;DHT22;5840;46.894;15.542;2023-08-08T03:12:30;10.70;99.90
11569;DHT22;5840;46.894;15.542;2023-08-08T03:14:57;10.70;99.90
11569;DHT22;5840;46.894;15.542;2023-08-08T03:17:24;10.70;99.90
11569;DHT22;5840;46.894;15.542;2023-08-08T03:19:51;10.70;99.90
11569;DHT22;5840;46.894;15.542;2023-08-08T03:22:18;10.80;99.90
11569;DHT22;5840;46.894;15.542;2023-08-08T03:24:46;10.80;99.90
11569;DHT22;5840;46.894;15.542;2023-08-08T03:27:13;10.80;99.90
11569;DHT22;5840;46.894;15.542;2023-08-08T03:29:40;10.80;99.90
11569;DHT22;5840;46.894;15.542;2023-08-08T03:32:07;10.80;99.90
11569;DHT22;5840;46.894;15.542;2023-08-08T03:34:33;10.70;99.90
11569;DHT22;5840;46.894;15.542;2023-08-08T03:37:00;10.70;99.90
11569;DHT22;5840;46.894;15.542;2023-08-08T03:39:27;10.60;99.90
11569;DHT22;5840;46.894;15.542;2023-08-08T03:41:55;10.60;99.90
11569;DHT22;5840;46.894;15.542;2023-08-08T03:44:22;10.60;99.90
11569;DHT22;5840;46.894;15.542;2023-08-08T03:46:49;10.50;99.90
11569;DHT22;5840;46.894;15.542;2023-08-08T03:49:16;10.40;99.90
11569;DHT22;5840;46.894;15.542;2023-08-08T03:51:43;10.40;99.90
11569;DHT22;5840;46.894;15.542;2023-08-08T03:54:10;10.40;99.90
11569;DHT22;5840;46.894;15.542;2023-08-08T03:56:37;10.40;99.90
11569;DHT22;5840;46.894;15.542;2023-08-08T03:59:05;10.30;99.90
11569;DHT22;5840;46.894;15.542;2023-08-08T04:01:32;10.30;99.90
11569;DHT22;5840;46.894;15.542;2023-08-08T04:03:59;10.30;99.90
11569;DHT22;5840;46.894;15.542;2023-08-08T04:06:26;10.30;99.90
11569;DHT22;5840;46.894;15.542;2023-08-08T04:08:53;10.20;99.90
11569;DHT22;5840;46.894;15.542;2023-08-08T04:11:20;10.20;99.90
11569;DHT22;5840;46.894;15.542;2023-08-08T04:13:47;10.20;99.90
11569;DHT22;5840;46.894;15.542;2023-08-08T04:16:15;10.20;99.90
11569;DHT22;5840;46.894;15.542;2023-08-08T04:18:42;10.20;99.90
11569;DHT22;5840;46.894;15.542;2023-08-08T04:21:09;10.20;99.90
11569;DHT22;5840;46.894;15.542;2023-08-08T04:23:36;10.10;99.90
11569;DHT22;5840;46.894;15.542;2023-08-08T04:26:03;10.10;99.90
11569;DHT22;5840;46.894;15.542;2023-08-08T04:28:30;10.10;99.90
11569;DHT22;5840;46.894;15.542;2023-08-08T04:30:57;10.10;99.90
11569;DHT22;5840;46.894;15.542;2023-08-08T04:33:25;10.20;99.90
11569;DHT22;5840;46.894;15.542;2023-08-08T04:35:52;10.20;99.90
11569;DHT22;5840;46.894;15.542;2023-08-08T04:38:19;10.30;99.90
11569;DHT22;5840;46.894;15.542;2023-08-08T04:40:46;10.30;99.90
11569;DHT22;5840;46.894;15.542;2023-08-08T04:43:13;10.40;99.90
11569;DHT22;5840;46.894;15.542;2023-08-08T04:45:40;10.40;99.90
11569;DHT22;5840;46.894;15.542;2023-08-08T04:48:07;10.40;99.90
11569;DHT22;5840;46.894;15.542;2023-08-08T04:50:35;10.40;99.90
11569;DHT22;5840;46.894;15.542;2023-08-08T04:53:02;10.40;99.90
11569;DHT22;5840;46.894;15.542;2023-08-08T04:55:29;10.40;99.90
11569;DHT22;5840;46.894;15.542;2023-08-08T04:57:56;10.40;99.90
11569;DHT22;5840;46.894;15.542;2023-08-08T05:00:25;10.40;99.90
11569;DHT22;5840;46.894;15.542;2023-08-08T05:02:52;10.40;99.90
11569;DHT22;5840;46.894;15.542;2023-08-08T05:05:19;10.40;99.90
11569;DHT22;5840;46.894;15.542;2023-08-08T05:07:47;10.40;99.90
11569;DHT22;5840;46.894;15.542;2023-08-08T05:10:14;10.50;99.90
11569;DHT22;5840;46.894;15.542;2023-08-08T05:12:41;10.50;99.90
11569;DHT22;5840;46.894;15.542;2023-08-08T05:15:09;10.50;99.90
11569;DHT22;5840;46.894;15.542;2023-08-08T05:17:37;10.60;99.90
11569;DHT22;5840;46.894;15.542;2023-08-08T05:20:05;10.70;99.90
11569;DHT22;5840;46.894;15.542;2023-08-08T05:22:32;10.70;99.90
11569;DHT22;5840;46.894;15.542;2023-08-08T05:25:00;10.80;99.90
11569;DHT22;5840;46.894;15.542;2023-08-08T05:27:27;10.90;99.90
11569;DHT22;5840;46.894;15.542;2023-08-08T05:29:54;11.10;99.90
11569;DHT22;5840;46.894;15.542;2023-08-08T05:32:21;11.20;99.90
11569;DHT22;5840;46.894;15.542;2023-08-08T05:34:49;11.40;99.90
11569;DHT22;5840;46.894;15.542;2023-08-08T05:37:16;11.50;99.90
11569;DHT22;5840;46.894;15.542;2023-08-08T05:39:43;11.60;99.90
11569;DHT22;5840;46.894;15.542;2023-08-08T05:42:11;11.80;99.90
11569;DHT22;5840;46.894;15.542;2023-08-08T05:44:38;11.90;99.90
11569;DHT22;5840;46.894;15.542;2023-08-08T05:47:07;12.00;99.90
11569;DHT22;5840;46.894;15.542;2023-08-08T05:49:34;12.20;99.90
11569;DHT22;5840;46.894;15.542;2023-08-08T05:52:01;12.30;99.90
11569;DHT22;5840;46.894;15.542;2023-08-08T05:54:28;12.40;99.90
11569;DHT22;5840;46.894;15.542;2023-08-08T05:56:55;12.60;99.90
11569;DHT22;5840;46.894;15.542;2023-08-08T05:59:23;12.80;99.90
11569;DHT22;5840;46.894;15.542;2023-08-08T06:01:50;12.90;99.90
11569;DHT22;5840;46.894;15.542;2023-08-08T06:04:17;13.00;99.90
11569;DHT22;5840;46.894;15.542;2023-08-08T06:06:44;13.20;99.90
11569;DHT22;5840;46.894;15.542;2023-08-08T06:09:14;13.30;99.90
11569;DHT22;5840;46.894;15.542;2023-08-08T06:11:41;13.40;99.90
11569;DHT22;5840;46.894;15.542;2023-08-08T06:14:08;13.60;99.90
11569;DHT22;5840;46.894;15.542;2023-08-08T06:16:36;13.70;99.90
11569;DHT22;5840;46.894;15.542;2023-08-08T06:19:03;13.90;99.90
11569;DHT22;5840;46.894;15.542;2023-08-08T06:21:31;13.90;99.90
11569;DHT22;5840;46.894;15.542;2023-08-08T06:23:57;14.10;99.90
11569;DHT22;5840;46.894;15.542;2023-08-08T06:26:25;14.20;99.90
11569;DHT22;5840;46.894;15.542;2023-08-08T06:28:52;14.30;99.90
11569;DHT22;5840;46.894;15.542;2023-08-08T06:31:19;14.40;99.90
11569;DHT22;5840;46.894;15.542;2023-08-08T06:33:49;14.50;99.90
11569;DHT22;5840;46.894;15.542;2023-08-08T06:36:15;14.60;99.90
11569;DHT22;5840;46.894;15.542;2023-08-08T06:38:42;14.60;99.90
11569;DHT22;5840;46.894;15.542;2023-08-08T06:41:09;14.60;99.90
11569;DHT22;5840;46.894;15.542;2023-08-08T06:43:36;14.60;99.90
11569;DHT22;5840;46.894;15.542;2023-08-08T06:46:03;14.70;99.90
11569;DHT22;5840;46.894;15.542;2023-08-08T06:48:30;14.80;99.90
11569;DHT22;5840;46.894;15.542;2023-08-08T06:50:58;14.90;99.90
11569;DHT22;5840;46.894;15.542;2023-08-08T06:53:25;15.00;99.90
11569;DHT22;5840;46.894;15.542;2023-08-08T06:55:52;15.10;99.90
11569;DHT22;5840;46.894;15.542;2023-08-08T06:58:19;15.20;99.90
11569;DHT22;5840;46.894;15.542;2023-08-08T07:00:46;15.40;99.90
11569;DHT22;5840;46.894;15.542;2023-08-08T07:03:13;15.60;99.90
11569;DHT22;5840;46.894;15.542;2023-08-08T07:05:40;15.80;99.90
11569;DHT22;5840;46.894;15.542;2023-08-08T07:08:08;15.90;99.90
11569;DHT22;5840;46.894;15.542;2023-08-08T07:10:35;16.00;99.90
11569;DHT22;5840;46.894;15.542;2023-08-08T07:13:03;16.10;99.90
11569;DHT22;5840;46.894;15.542;2023-08-08T07:15:29;16.20;99.90
11569;DHT22;5840;46.894;15.542;2023-08-08T07:17:57;16.30;99.90
11569;DHT22;5840;46.894;15.542;2023-08-08T07:20:23;16.40;99.90
11569;DHT22;5840;46.894;15.542;2023-08-08T07:22:51;16.70;99.90
11569;DHT22;5840;46.894;15.542;2023-08-08T07:25:19;17.00;99.90
11569;DHT22;5840;46.894;15.542;2023-08-08T07:27:46;17.30;99.90
11569;DHT22;5840;46.894;15.542;2023-08-08T07:30:13;17.60;99.90
11569;DHT22;5840;46.894;15.542;2023-08-08T07:32:40;17.80;99.90
11569;DHT22;5840;46.894;15.542;2023-08-08T07:35:07;18.00;99.90
11569;DHT22;5840;46.894;15.542;2023-08-08T07:37:34;18.10;99.90
11569;DHT22;5840;46.894;15.542;2023-08-08T07:40:01;18.30;99.90
11569;DHT22;5840;46.894;15.542;2023-08-08T07:42:30;18.50;99.90
11569;DHT22;5840;46.894;15.542;2023-08-08T07:44:58;18.70;99.90
11569;DHT22;5840;46.894;15.542;2023-08-08T07:47:24;19.10;99.90
11569;DHT22;5840;46.894;15.542;2023-08-08T07:49:52;19.40;99.90
11569;DHT22;5840;46.894;15.542;2023-08-08T07:52:18;19.60;99.90
11569;DHT22;5840;46.894;15.542;2023-08-08T07:54:45;19.80;99.90
11569;DHT22;5840;46.894;15.542;2023-08-08T07:57:12;19.80;99.90
11569;DHT22;5840;46.894;15.542;2023-08-08T07:59:40;19.80;99.90
11569;DHT22;5840;46.894;15.542;2023-08-08T08:02:07;19.70;99.90
11569;DHT22;5840;46.894;15.542;2023-08-08T08:04:34;19.70;99.90
11569;DHT22;5840;46.894;15.542;2023-08-08T08:07:01;19.90;99.90
11569;DHT22;5840;46.894;15.542;2023-08-08T08:09:28;20.10;99.90
11569;DHT22;5840;46.894;15.542;2023-08-08T08:11:55;20.30;99.90
11569;DHT22;5840;46.894;15.542;2023-08-08T08:14:22;20.30;99.90
11569;DHT22;5840;46.894;15.542;2023-08-08T08:16:51;20.40;99.90
11569;DHT22;5840;46.894;15.542;2023-08-08T08:19:18;20.60;99.90
11569;DHT22;5840;46.894;15.542;2023-08-08T08:21:45;20.70;99.90
11569;DHT22;5840;46.894;15.542;2023-08-08T08:24:12;20.90;99.90
11569;DHT22;5840;46.894;15.542;2023-08-08T08:26:39;21.10;99.90
11569;DHT22;5840;46.894;15.542;2023-08-08T08:29:06;21.20;99.90
11569;DHT22;5840;46.894;15.542;2023-08-08T08:31:33;21.20;99.90
11569;DHT22;5840;46.894;15.542;2023-08-08T08:34:01;21.30;99.90
11569;DHT22;5840;46.894;15.542;2023-08-08T08:36:28;21.50;99.90
11569;DHT22;5840;46.894;15.542;2023-08-08T08:38:55;21.70;99.20
11569;DHT22;5840;46.894;15.542;2023-08-08T08:41:25;21.70;98.50
11569;DHT22;5840;46.894;15.542;2023-08-08T08:43:53;21.80;99.60
11569;DHT22;5840;46.894;15.542;2023-08-08T08:46:21;21.80;98.90
11569;DHT22;5840;46.894;15.542;2023-08-08T08:48:49;21.80;98.90
11569;DHT22;5840;46.894;15.542;2023-08-08T08:51:18;22.00;98.30
11569;DHT22;5840;46.894;15.542;2023-08-08T08:53:46;22.10;98.60
11569;DHT22;5840;46.894;15.542;2023-08-08T08:56:14;22.10;99.90
11569;DHT22;5840;46.894;15.542;2023-08-08T08:58:42;22.20;98.00
11569;DHT22;5840;46.894;15.542;2023-08-08T09:01:09;22.30;98.40
11569;DHT22;5840;46.894;15.542;2023-08-08T09:03:36;22.20;96.50
11569;DHT22;5840;46.894;15.542;2023-08-08T09:06:04;22.20;96.40
11569;DHT22;5840;46.894;15.542;2023-08-08T09:08:33;22.30;99.80
11569;DHT22;5840;46.894;15.542;2023-08-08T09:11:00;22.30;99.30
11569;DHT22;5840;46.894;15.542;2023-08-08T09:13:27;22.50;98.10
11569;DHT22;5840;46.894;15.542;2023-08-08T09:15:53;22.40;97.00
11569;DHT22;5840;46.894;15.542;2023-08-08T09:18:23;22.50;95.40
11569;DHT22;5840;46.894;15.542;2023-08-08T09:20:50;22.50;97.20
11569;DHT22;5840;46.894;15.542;2023-08-08T09:23:17;22.60;97.60
11569;DHT22;5840;46.894;15.542;2023-08-08T09:25:45;22.80;95.70
11569;DHT22;5840;46.894;15.542;2023-08-08T09:28:12;22.80;93.20
11569;DHT22;5840;46.894;15.542;2023-08-08T09:30:41;22.90;95.40
11569;DHT22;5840;46.894;15.542;2023-08-08T09:33:07;22.90;97.20
11569;DHT22;5840;46.894;15.542;2023-08-08T09:35:37;22.90;93.80
11569;DHT22;5840;46.894;15.542;2023-08-08T09:38:04;23.00;97.00
11569;DHT22;5840;46.894;15.542;2023-08-08T09:40:31;23.00;92.80
11569;DHT22;5840;46.894;15.542;2023-08-08T09:43:00;23.10;94.60
11569;DHT22;5840;46.894;15.542;2023-08-08T09:45:26;23.20;92.00
11569;DHT22;5840;46.894;15.542;2023-08-08T09:47:53;23.30;94.30
11569;DHT22;5840;46.894;15.542;2023-08-08T09:50:20;23.40;93.50
11569;DHT22;5840;46.894;15.542;2023-08-08T09:52:47;23.50;93.00
11569;DHT22;5840;46.894;15.542;2023-08-08T09:55:14;23.60;93.90
11569;DHT22;5840;46.894;15.542;2023-08-08T09:57:42;23.70;94.00
11569;DHT22;5840;46.894;15.542;2023-08-08T10:00:11;23.80;92.60
11569;DHT22;5840;46.894;15.542;2023-08-08T10:02:43;24.00;90.80
11569;DHT22;5840;46.894;15.542;2023-08-08T10:05:10;24.10;91.20
11569;DHT22;5840;46.894;15.542;2023-08-08T10:07:38;24.20;91.40
11569;DHT22;5840;46.894;15.542;2023-08-08T10:10:07;24.10;87.90
11569;DHT22;5840;46.894;15.542;2023-08-08T10:12:36;24.20;89.50
11569;DHT22;5840;46.894;15.542;2023-08-08T10:15:06;24.30;89.90
11569;DHT22;5840;46.894;15.542;2023-08-08T10:17:36;24.50;89.70
11569;DHT22;5840;46.894;15.542;2023-08-08T10:20:05;24.70;90.50
11569;DHT22;5840;46.894;15.542;2023-08-08T10:22:37;24.70;92.50
11569;DHT22;5840;46.894;15.542;2023-08-08T10:25:06;24.60;87.10
11569;DHT22;5840;46.894;15.542;2023-08-08T10:27:34;24.60;90.90
11569;DHT22;5840;46.894;15.542;2023-08-08T10:30:03;24.30;83.90
11569;DHT22;5840;46.894;15.542;2023-08-08T10:32:40;24.50;90.10
11569;DHT22;5840;46.894;15.542;2023-08-08T10:35:08;24.60;90.90
11569;DHT22;5840;46.894;15.542;2023-08-08T10:37:36;24.70;92.50
11569;DHT22;5840;46.894;15.542;2023-08-08T10:40:04;24.70;90.50
11569;DHT22;5840;46.894;15.542;2023-08-08T10:42:31;24.70;84.80
11569;DHT22;5840;46.894;15.542;2023-08-08T10:45:00;24.60;86.30
11569;DHT22;5840;46.894;15.542;2023-08-08T10:47:31;24.40;91.20
11569;DHT22;5840;46.894;15.542;2023-08-08T10:50:03;24.30;93.40
11569;DHT22;5840;46.894;15.542;2023-08-08T10:52:30;24.10;89.60
11569;DHT22;5840;46.894;15.542;2023-08-08T10:55:01;24.30;88.70
11569;DHT22;5840;46.894;15.542;2023-08-08T10:57:28;24.30;90.90
11569;DHT22;5840;46.894;15.542;2023-08-08T11:00:16;24.20;90.90
11569;DHT22;5840;46.894;15.542;2023-08-08T11:02:44;24.20;89.80
11569;DHT22;5840;46.894;15.542;2023-08-08T11:05:14;24.40;92.70
11569;DHT22;5840;46.894;15.542;2023-08-08T11:07:42;24.50;91.00
11569;DHT22;5840;46.894;15.542;2023-08-08T11:10:09;24.70;90.90
11569;DHT22;5840;46.894;15.542;2023-08-08T11:12:36;24.80;91.40
11569;DHT22;5840;46.894;15.542;2023-08-08T11:15:04;24.80;83.40
11569;DHT22;5840;46.894;15.542;2023-08-08T11:17:32;24.80;90.80
11569;DHT22;5840;46.894;15.542;2023-08-08T11:19:58;24.70;90.20
11569;DHT22;5840;46.894;15.542;2023-08-08T11:22:28;24.40;89.20
11569;DHT22;5840;46.894;15.542;2023-08-08T11:24:55;24.20;88.90
11569;DHT22;5840;46.894;15.542;2023-08-08T11:27:28;24.20;90.50
11569;DHT22;5840;46.894;15.542;2023-08-08T11:29:56;24.20;89.40
11569;DHT22;5840;46.894;15.542;2023-08-08T11:32:24;24.40;93.00
11569;DHT22;5840;46.894;15.542;2023-08-08T11:34:52;24.40;90.50
11569;DHT22;5840;46.894;15.542;2023-08-08T11:37:19;24.50;92.10
11569;DHT22;5840;46.894;15.542;2023-08-08T11:39:48;24.50;90.10
11569;DHT22;5840;46.894;15.542;2023-08-08T11:42:15;24.30;91.80
11569;DHT22;5840;46.894;15.542;2023-08-08T11:44:42;24.20;92.20
11569;DHT22;5840;46.894;15.542;2023-08-08T11:47:09;24.30;91.00
11569;DHT22;5840;46.894;15.542;2023-08-08T11:49:42;24.20;88.40
11569;DHT22;5840;46.894;15.542;2023-08-08T11:52:09;24.20;92.10
11569;DHT22;5840;46.894;15.542;2023-08-08T11:54:37;24.20;90.60
11569;DHT22;5840;46.894;15.542;2023-08-08T11:57:05;24.20;91.60
11569;DHT22;5840;46.894;15.542;2023-08-08T11:59:33;24.30;91.90
11569;DHT22;5840;46.894;15.542;2023-08-08T12:02:01;24.40;91.50
11569;DHT22;5840;46.894;15.542;2023-08-08T12:04:28;24.60;91.50
11569;DHT22;5840;46.894;15.542;2023-08-08T12:07:01;24.40;92.10
11569;DHT22;5840;46.894;15.542;2023-08-08T12:09:30;24.40;92.10
11569;DHT22;5840;46.894;15.542;2023-08-08T12:11:59;24.40;92.60
11569;DHT22;5840;46.894;15.542;2023-08-08T12:14:28;24.40;91.90
11569;DHT22;5840;46.894;15.542;2023-08-08T12:16:55;24.50;92.50
11569;DHT22;5840;46.894;15.542;2023-08-08T12:19:23;24.70;92.00
11569;DHT22;5840;46.894;15.542;2023-08-08T12:21:50;24.70;93.50
11569;DHT22;5840;46.894;15.542;2023-08-08T12:24:18;24.60;91.00
11569;DHT22;5840;46.894;15.542;2023-08-08T12:26:45;24.40;90.70
11569;DHT22;5840;46.894;15.542;2023-08-08T12:29:12;24.40;91.60
11569;DHT22;5840;46.894;15.542;2023-08-08T12:31:40;24.30;91.10
11569;DHT22;5840;46.894;15.542;2023-08-08T12:34:07;24.20;93.60
11569;DHT22;5840;46.894;15.542;2023-08-08T12:36:35;24.40;91.70
11569;DHT22;5840;46.894;15.542;2023-08-08T12:39:02;24.50;90.70
11569;DHT22;5840;46.894;15.542;2023-08-08T12:41:30;24.40;91.10
11569;DHT22;5840;46.894;15.542;2023-08-08T12:43:57;24.50;90.60
11569;DHT22;5840;46.894;15.542;2023-08-08T12:46:24;24.60;91.90
11569;DHT22;5840;46.894;15.542;2023-08-08T12:48:52;24.70;92.60
11569;DHT22;5840;46.894;15.542;2023-08-08T12:51:19;24.70;90.70
11569;DHT22;5840;46.894;15.542;2023-08-08T12:53:46;24.70;92.10
11569;DHT22;5840;46.894;15.542;2023-08-08T12:56:13;24.60;90.90
11569;DHT22;5840;46.894;15.542;2023-08-08T12:58:40;24.40;91.10
11569;DHT22;5840;46.894;15.542;2023-08-08T13:01:06;24.20;86.90
11569;DHT22;5840;46.894;15.542;2023-08-08T13:03:34;24.20;88.90
11569;DHT22;5840;46.894;15.542;2023-08-08T13:06:02;24.30;91.10
11569;DHT22;5840;46.894;15.542;2023-08-08T13:08:29;24.30;91.60
11569;DHT22;5840;46.894;15.542;2023-08-08T13:10:58;24.50;91.20
11569;DHT22;5840;46.894;15.542;2023-08-08T13:13:24;24.60;90.40
11569;DHT22;5840;46.894;15.542;2023-08-08T13:15:51;24.50;88.70
11569;DHT22;5840;46.894;15.542;2023-08-08T13:18:18;24.60;91.50
11569;DHT22;5840;46.894;15.542;2023-08-08T13:20:45;24.60;91.70
11569;DHT22;5840;46.894;15.542;2023-08-08T13:23:13;24.60;91.50
11569;DHT22;5840;46.894;15.542;2023-08-08T13:25:40;24.60;91.50
11569;DHT22;5840;46.894;15.542;2023-08-08T13:28:08;24.70;89.40
11569;DHT22;5840;46.894;15.542;2023-08-08T13:30:35;24.70;93.40
11569;DHT22;5840;46.894;15.542;2023-08-08T13:33:02;24.70;90.70
11569;DHT22;5840;46.894;15.542;2023-08-08T13:35:30;24.60;90.20
11569;DHT22;5840;46.894;15.542;2023-08-08T13:37:56;24.60;88.70
11569;DHT22;5840;46.894;15.542;2023-08-08T13:40:25;24.70;92.20
11569;DHT22;5840;46.894;15.542;2023-08-08T13:42:51;24.50;90.80
11569;DHT22;5840;46.894;15.542;2023-08-08T13:45:19;24.40;90.90
11569;DHT22;5840;46.894;15.542;2023-08-08T13:47:47;24.30;90.20
11569;DHT22;5840;46.894;15.542;2023-08-08T13:50:14;24.30;91.60
11569;DHT22;5840;46.894;15.542;2023-08-08T13:52:41;24.50;91.80
11569;DHT22;5840;46.894;15.542;2023-08-08T13:55:09;24.50;88.70
11569;DHT22;5840;46.894;15.542;2023-08-08T13:57:37;24.50;91.20
11569;DHT22;5840;46.894;15.542;2023-08-08T14:00:05;24.50;90.20
11569;DHT22;5840;46.894;15.542;2023-08-08T14:02:36;24.40;88.00
11569;DHT22;5840;46.894;15.542;2023-08-08T14:05:03;24.50;91.20
11569;DHT22;5840;46.894;15.542;2023-08-08T14:07:32;24.50;92.00
11569;DHT22;5840;46.894;15.542;2023-08-08T14:09:58;24.50;93.00
11569;DHT22;5840;46.894;15.542;2023-08-08T14:12:25;24.40;91.30
11569;DHT22;5840;46.894;15.542;2023-08-08T14:14:53;24.20;92.10
11569;DHT22;5840;46.894;15.542;2023-08-08T14:17:20;24.20;91.30
11569;DHT22;5840;46.894;15.542;2023-08-08T14:19:47;24.20;93.70
11569;DHT22;5840;46.894;15.542;2023-08-08T14:22:14;24.10;91.70
11569;DHT22;5840;46.894;15.542;2023-08-08T14:24:42;23.80;92.10
11569;DHT22;5840;46.894;15.542;2023-08-08T14:27:09;23.70;93.40
11569;DHT22;5840;46.894;15.542;2023-08-08T14:29:35;23.70;94.20
11569;DHT22;5840;46.894;15.542;2023-08-08T14:32:04;23.40;94.70
11569;DHT22;5840;46.894;15.542;2023-08-08T14:34:31;23.50;96.70
11569;DHT22;5840;46.894;15.542;2023-08-08T14:37:00;23.30;93.90
11569;DHT22;5840;46.894;15.542;2023-08-08T14:39:27;23.20;95.40
11569;DHT22;5840;46.894;15.542;2023-08-08T14:41:54;23.00;94.30
11569;DHT22;5840;46.894;15.542;2023-08-08T14:44:21;22.60;94.70
11569;DHT22;5840;46.894;15.542;2023-08-08T14:46:49;22.40;94.30
11569;DHT22;5840;46.894;15.542;2023-08-08T14:49:17;22.30;96.90
11569;DHT22;5840;46.894;15.542;2023-08-08T14:51:44;22.30;96.80
11569;DHT22;5840;46.894;15.542;2023-08-08T14:54:11;22.40;96.80
11569;DHT22;5840;46.894;15.542;2023-08-08T14:56:37;22.40;94.90
11569;DHT22;5840;46.894;15.542;2023-08-08T14:59:04;22.40;95.60
11569;DHT22;5840;46.894;15.542;2023-08-08T15:01:31;22.40;96.90
11569;DHT22;5840;46.894;15.542;2023-08-08T15:03:58;22.40;95.60
11569;DHT22;5840;46.894;15.542;2023-08-08T15:06:26;22.40;97.30
11569;DHT22;5840;46.894;15.542;2023-08-08T15:08:53;22.20;96.90
11569;DHT22;5840;46.894;15.542;2023-08-08T15:11:20;22.10;97.20
11569;DHT22;5840;46.894;15.542;2023-08-08T15:13:47;22.10;96.60
11569;DHT22;5840;46.894;15.542;2023-08-08T15:16:14;22.10;97.70
11569;DHT22;5840;46.894;15.542;2023-08-08T15:18:41;22.10;95.40
11569;DHT22;5840;46.894;15.542;2023-08-08T15:21:08;22.10;96.80
11569;DHT22;5840;46.894;15.542;2023-08-08T15:23:38;22.00;96.10
11569;DHT22;5840;46.894;15.542;2023-08-08T15:26:07;21.90;96.40
11569;DHT22;5840;46.894;15.542;2023-08-08T15:28:35;21.80;96.30
11569;DHT22;5840;46.894;15.542;2023-08-08T15:31:02;21.80;97.00
11569;DHT22;5840;46.894;15.542;2023-08-08T15:33:30;21.80;96.30